»·PEaware :: WAT169 KLAS-KRNO

WAT169 :: KLAS-KRNO

FLIGHT INFORMATION

Flight Status: Arrived
Operator:
Walker Air Transport
More flights by this operator :: More flights under this callsign
Pilot: Marty P. (27464)
Aircraft: BOEING 737-800
(B738)
More flights by this aircraft type
Origin: KLAS McCarran Intl
United States
Destination: KRNO Reno/Tahoe Intl
United States
More flights between these airports :: More routes between these airports
Route: SHEAD1 KENNO KENNO2
File this flight plan on PilotEdge
Remarks:
Altitude:
(Current/Filed)
38,000ft
Speed:
(Current/Filed)
480kts
Departed: 29-Sep-20 08:32 PM
Arrived: 29-Sep-20 09:25 PM
Distance/Time
Traveled:
300nm/0:53
Distance/Time
To Go:
Arrived

Flight Plot

Page will automatically refresh every two minutes.

Flight plan parsing failed; only flown route is shown


Map Options




Map Legend


Flown Route
Filed Route
Departure Airport
Arrival Airport
Navaid (VOR, NDB)
Fix

Horizontal Profiles

Position Reports

Time Latitude Longitude Heading Altitude Ground
Speed
29-Sep-20 20:08 36.080683 -115.138434 315 2191ft 0kts
29-Sep-20 20:09 36.080683 -115.138434 315 2191ft 0kts
29-Sep-20 20:10 36.080683 -115.138434 315 2191ft 0kts
29-Sep-20 20:11 36.080683 -115.138434 315 2191ft 0kts
29-Sep-20 20:12 36.080683 -115.138434 315 2191ft 0kts
29-Sep-20 20:13 36.080683 -115.138434 315 2191ft 0kts
29-Sep-20 20:14 36.080683 -115.138434 315 2191ft 0kts
29-Sep-20 20:15 36.080683 -115.138434 315 2191ft 0kts
29-Sep-20 20:16 36.080683 -115.138434 315 2191ft 0kts
29-Sep-20 20:17 36.080683 -115.138434 315 2191ft 0kts
29-Sep-20 20:18 36.080683 -115.138434 315 2191ft 0kts
29-Sep-20 20:19 36.080683 -115.138434 315 2191ft 0kts
29-Sep-20 20:20 36.080683 -115.138434 315 2191ft 0kts
29-Sep-20 20:21 36.080463 -115.138161 314 2191ft 2kts
29-Sep-20 20:22 36.080315 -115.137624 215 2191ft 2kts
29-Sep-20 20:23 36.080006 -115.137143 144 2191ft 7kts
29-Sep-20 20:24 36.079298 -115.136371 135 2191ft 0kts
29-Sep-20 20:25 36.079298 -115.136371 135 2191ft 0kts
29-Sep-20 20:26 36.078270 -115.134520 89 2191ft 13kts
29-Sep-20 20:27 36.078282 -115.127445 89 2191ft 23kts
29-Sep-20 20:28 36.077697 -115.121828 128 2191ft 9kts
29-Sep-20 20:29 36.077468 -115.121507 138 2191ft 0kts
29-Sep-20 20:30 36.076455 -115.121529 241 2191ft 10kts
29-Sep-20 20:31 36.076400 -115.131322 270 2191ft 119kts
29-Sep-20 20:32 36.076538 -115.192834 271 3962ft 188kts
29-Sep-20 20:33 36.052976 -115.262812 212 6490ft 259kts
29-Sep-20 20:34 35.984574 -115.295908 206 10246ft 275kts
29-Sep-20 20:35 35.920927 -115.362534 230 11943ft 353kts
29-Sep-20 20:36 35.888515 -115.485856 269 14113ft 394kts
29-Sep-20 20:37 35.890094 -115.622593 271 16939ft 408kts
29-Sep-20 20:38 35.892514 -115.764584 270 19396ft 421kts
29-Sep-20 20:39 35.896968 -115.910353 279 21653ft 433kts
29-Sep-20 20:40 35.960649 -116.036909 312 23626ft 449kts
29-Sep-20 20:41 36.050398 -116.146498 314 25400ft 461kts
29-Sep-20 20:42 36.143570 -116.255565 314 27174ft 466kts
29-Sep-20 20:43 36.237449 -116.364580 315 29255ft 460kts
29-Sep-20 20:44 36.329915 -116.472002 315 31223ft 453kts
29-Sep-20 20:45 36.420860 -116.577939 315 33037ft 446kts
29-Sep-20 20:46 36.510114 -116.682925 314 34590ft 441kts
29-Sep-20 20:47 36.607165 -116.775891 324 35953ft 441kts
29-Sep-20 20:48 36.710417 -116.857787 326 37103ft 441kts
29-Sep-20 20:49 36.814689 -116.938003 326 38092ft 441kts
29-Sep-20 20:50 36.921007 -117.019366 327 38278ft 458kts
29-Sep-20 20:51 37.031253 -117.103802 327 38338ft 473kts
29-Sep-20 20:53 37.145030 -117.191195 327 38338ft 483kts
29-Sep-20 20:54 37.259940 -117.279778 326 38338ft 487kts
29-Sep-20 20:55 37.362734 -117.379850 319 38335ft 450kts
29-Sep-20 20:56 37.455308 -117.477355 319 38299ft 421kts
29-Sep-20 20:57 37.549719 -117.561306 326 36927ft 432kts
29-Sep-20 20:58 37.652069 -117.643195 327 35629ft 437kts
29-Sep-20 20:59 37.753771 -117.723938 327 34442ft 439kts
29-Sep-20 21:00 37.857618 -117.806444 327 33201ft 442kts
29-Sep-20 21:01 37.961906 -117.889542 327 31994ft 444kts
29-Sep-20 21:02 38.066564 -117.973193 327 30738ft 446kts
29-Sep-20 21:03 38.171963 -118.057704 327 29383ft 449kts
29-Sep-20 21:04 38.277743 -118.142761 327 27894ft 453kts
29-Sep-20 21:05 38.384750 -118.229557 323 26262ft 459kts
29-Sep-20 21:06 38.479379 -118.337154 317 25073ft 453kts
29-Sep-20 21:07 38.570617 -118.447142 316 24200ft 442kts
29-Sep-20 21:08 38.657392 -118.554131 316 23302ft 419kts
29-Sep-20 21:09 38.739058 -118.655043 315 23302ft 403kts
29-Sep-20 21:09 38.807652 -118.740477 315 22181ft 420kts
29-Sep-20 21:11 38.907469 -118.864945 315 20252ft 431kts
29-Sep-20 21:12 38.991682 -118.970971 315 18540ft 417kts
29-Sep-20 21:12 39.060341 -119.057676 315 17371ft 411kts
29-Sep-20 21:14 39.155443 -119.177674 315 16324ft 410kts
29-Sep-20 21:14 39.222199 -119.262101 316 15977ft 399kts
29-Sep-20 21:15 39.301746 -119.363789 315 13575ft 389kts
29-Sep-20 21:16 39.374794 -119.450215 324 11940ft 316kts
29-Sep-20 21:17 39.442790 -119.513272 324 10734ft 288kts
29-Sep-20 21:18 39.504832 -119.571298 324 9957ft 253kts
29-Sep-20 21:19 39.560975 -119.624048 324 8475ft 231kts
29-Sep-20 21:20 39.604504 -119.669977 303 7574ft 186kts
29-Sep-20 21:21 39.606229 -119.735853 241 6590ft 196kts
29-Sep-20 21:22 39.564343 -119.768408 185 5461ft 157kts
29-Sep-20 21:23 39.519116 -119.769975 173 4613ft 174kts
29-Sep-20 21:24 39.487209 -119.769336 185 4425ft 21kts
29-Sep-20 21:25 39.488396 -119.770689 1 4425ft 13kts
29-Sep-20 21:26 39.492133 -119.770708 0 4425ft 13kts
29-Sep-20 21:27 39.496019 -119.770699 0 4425ft 14kts
29-Sep-20 21:28 39.500022 -119.770702 2 4425ft 14kts
29-Sep-20 21:29 39.503822 -119.771112 289 4425ft 10kts
29-Sep-20 21:30 39.504340 -119.774243 10 4425ft 0kts

Navigation Log

Ident Type
Flight plan parsing failed, navigation log unavailable